createdAt,value
2023-03-28T00:02:23.501Z,21.5
2023-03-28T00:08:15.389Z,21.4
2023-03-28T00:13:36.465Z,21.4
2023-03-28T00:19:12.628Z,21.4
2023-03-28T00:25:03.276Z,21.4
2023-03-28T00:30:23.349Z,21.4
2023-03-28T00:35:59.923Z,21.3
2023-03-28T00:41:51.404Z,21.3
2023-03-28T00:47:44.805Z,21.3
2023-03-28T00:53:21.561Z,21.2
2023-03-28T01:31:47.531Z,21
2023-03-28T01:37:24.710Z,21
2023-03-28T01:43:00.911Z,21
2023-03-28T01:48:37.827Z,20.9
2023-03-28T01:54:13.506Z,20.9
2023-03-28T01:59:56.903Z,20.9
2023-03-28T02:05:48.404Z,20.9
2023-03-28T02:11:24.749Z,20.8
2023-03-28T02:17:16.161Z,20.8
2023-03-28T02:23:07.673Z,20.8
2023-03-28T02:28:44.303Z,20.7
2023-03-28T02:34:35.955Z,20.7
2023-03-28T02:40:27.583Z,20.9
2023-03-28T02:46:22.172Z,21.3
2023-03-28T02:57:43.370Z,21.5
2023-03-28T03:03:35.418Z,21.6
2023-03-28T03:09:12.882Z,21.7
2023-03-28T03:14:33.695Z,21.8
2023-03-28T03:20:25.577Z,21.8
2023-03-28T03:26:03.623Z,21.8
2023-03-28T03:31:33.568Z,21.8
2023-03-28T03:37:13.201Z,21.8
2023-03-28T03:42:49.699Z,21.9
2023-03-28T03:48:10.976Z,21.9
2023-03-28T03:53:52.992Z,21.9
2023-03-28T03:59:13.853Z,21.9
2023-03-28T04:05:03.630Z,21.9
2023-03-28T04:10:39.619Z,21.9
2023-03-28T04:16:16.204Z,21.9
2023-03-28T04:22:03.385Z,21.9
2023-03-28T04:33:26.485Z,21.9
2023-03-28T04:38:39.705Z,21.9
2023-03-28T04:43:45.451Z,22
2023-03-28T04:49:37.747Z,21.9
2023-03-28T04:55:29.509Z,21.9
2023-03-28T05:01:21.425Z,21.9
2023-03-28T05:06:59.313Z,21.9
2023-03-28T05:12:50.778Z,21.9
2023-03-28T05:18:46.487Z,21.9
2023-03-28T05:24:41.909Z,21.9
2023-03-28T05:30:32.139Z,21.9
2023-03-28T05:36:24.365Z,21.9
2023-03-28T05:42:16.355Z,21.9
2023-03-28T05:48:06.947Z,21.9
2023-03-28T05:53:58.591Z,21.9
2023-03-28T05:59:38.923Z,21.9
2023-03-28T06:05:32.177Z,21.9
2023-03-28T06:11:37.028Z,21.9
2023-03-28T06:17:37.256Z,21.9
2023-03-28T06:23:45.903Z,21.9
2023-03-28T06:29:21.894Z,21.9
2023-03-28T06:35:15.013Z,21.9
2023-03-28T06:41:07.309Z,21.9
2023-03-28T06:46:58.974Z,21.9
2023-03-28T06:52:35.797Z,21.9
2023-03-28T06:58:11.302Z,21.9
2023-03-28T07:04:06.907Z,21.8
2023-03-28T07:09:58.638Z,21.9
2023-03-28T07:15:35.963Z,21.8
2023-03-28T07:21:36.657Z,21.7
2023-03-28T07:27:46.977Z,21.6
2023-03-28T07:34:10.207Z,21.4
2023-03-28T07:39:46.427Z,21.3
2023-03-28T07:50:58.592Z,21
2023-03-28T07:57:00.393Z,20.9
2023-03-28T08:02:52.835Z,20.8
2023-03-28T08:08:59.180Z,20.7
2023-03-28T08:14:50.940Z,20.6
2023-03-28T08:20:55.037Z,20.6
2023-03-28T08:26:40.992Z,20.5
2023-03-28T08:32:32.372Z,20.4
2023-03-28T08:38:27.620Z,20.4
2023-03-28T08:49:55.910Z,20.3
2023-03-28T08:55:50.616Z,20.3
2023-03-28T09:01:42.244Z,20.2
2023-03-28T09:07:53.300Z,19.5
2023-03-28T09:19:21.653Z,21.6
2023-03-28T09:25:36.258Z,20.5
2023-03-28T09:31:29.513Z,20.1
2023-03-28T09:37:18.153Z,20.3
2023-03-28T09:43:10.275Z,20.4
2023-03-28T09:49:13.189Z,23.9
2023-03-28T09:54:59.339Z,23.9
2023-03-28T10:01:00.702Z,24.8
2023-03-28T10:06:53.187Z,23.6
2023-03-28T10:12:44.075Z,23.9
2023-03-28T10:18:35.517Z,25.4
2023-03-28T10:24:26.698Z,26.3
2023-03-28T10:30:17.458Z,29.4
2023-03-28T10:35:55.817Z,31.6
2023-03-28T10:41:48.284Z,34.7
2023-03-28T10:47:39.466Z,36.1
2023-03-28T10:53:30.818Z,33.8
2023-03-28T10:59:23.206Z,36.4
2023-03-28T11:05:15.345Z,34.6
2023-03-28T11:11:26.022Z,35.3
2023-03-28T11:17:33.824Z,36.6
2023-03-28T11:23:21.907Z,40.3
2023-03-28T11:29:36.783Z,38.9
2023-03-28T11:35:18.624Z,37.1
2023-03-28T11:41:11.772Z,39.4
2023-03-28T11:47:17.011Z,40.2
2023-03-28T11:53:09.817Z,41.8
2023-03-28T11:59:01.295Z,42.2
2023-03-28T12:05:02.820Z,43.4
2023-03-28T12:11:11.425Z,43.4
2023-03-28T12:17:15.134Z,42.8
2023-03-28T12:23:08.269Z,44.1
2023-03-28T12:34:36.691Z,40.8
2023-03-28T12:40:28.238Z,42.7
2023-03-28T12:46:05.610Z,40.5
2023-03-28T12:51:57.502Z,42.6
2023-03-28T13:03:43.315Z,42.4
2023-03-28T13:09:35.569Z,40.6
2023-03-28T13:15:27.448Z,42.9
2023-03-28T13:21:20.411Z,40.6
2023-03-28T13:26:42.084Z,40.7
2023-03-28T13:32:33.945Z,39.4
2023-03-28T13:38:29.025Z,38.1
2023-03-28T13:44:05.153Z,40.4
2023-03-28T13:49:52.113Z,40.8
2023-03-28T13:55:41.419Z,41.3
2023-03-28T14:01:33.172Z,40.1
2023-03-28T14:07:26.703Z,40.4
2023-03-28T14:13:18.499Z,39.9
2023-03-28T14:19:12.319Z,39.8
2023-03-28T14:25:12.796Z,39.3
2023-03-28T14:30:52.735Z,38.6
2023-03-28T14:36:54.481Z,38.1
2023-03-28T14:42:45.310Z,37.2
2023-03-28T14:48:37.344Z,36.6
2023-03-28T14:54:30.876Z,34.7
2023-03-28T15:00:22.584Z,33.2
2023-03-28T15:06:15.546Z,32.2
2023-03-28T15:11:53.403Z,31.4
2023-03-28T15:17:47.374Z,30.9
2023-03-28T15:23:39.090Z,30.4
2023-03-28T15:29:32.434Z,29.9
2023-03-28T15:35:11.498Z,29.6
2023-03-28T15:41:03.384Z,29.4
2023-03-28T15:46:54.235Z,29.1
2023-03-28T15:52:47.892Z,28.9
2023-03-28T15:58:56.397Z,28.8
2023-03-28T16:04:47.848Z,28.7
2023-03-28T16:10:43.216Z,28.6
2023-03-28T16:16:35.431Z,28.4
2023-03-28T16:22:11.389Z,28.4
2023-03-28T16:27:47.727Z,28.3
2023-03-28T16:33:25.175Z,28.3
2023-03-28T16:39:17.223Z,28.1
2023-03-28T16:45:08.171Z,28.1
2023-03-28T16:50:59.780Z,27.9
2023-03-28T17:02:12.403Z,27.7
2023-03-28T17:08:07.630Z,27.6
2023-03-28T17:13:59.350Z,27.4
2023-03-28T17:25:12.188Z,27.1
2023-03-28T17:31:20.819Z,26.9
2023-03-28T17:37:14.295Z,26.9
2023-03-28T17:43:06.414Z,26.9
2023-03-28T17:48:59.060Z,26.8
2023-03-28T17:54:38.801Z,26.8
2023-03-28T18:00:31.592Z,26.8
2023-03-28T18:06:08.863Z,26.8
2023-03-28T18:12:03.424Z,26.8
2023-03-28T18:17:40.467Z,26.7
2023-03-28T18:23:16.203Z,26.7
2023-03-28T18:29:10.340Z,26.6
2023-03-28T18:34:51.824Z,26.6
2023-03-28T18:46:08.128Z,26.5
2023-03-28T18:51:45.223Z,26.5
2023-03-28T18:57:22.624Z,26.4
2023-03-28T19:03:00.846Z,26.4
2023-03-28T19:08:39.209Z,26.3
2023-03-28T19:14:00.848Z,26.3
2023-03-28T19:19:41.027Z,26.3
2023-03-28T19:30:57.252Z,26.3
2023-03-28T19:36:51.359Z,26.2
2023-03-28T19:42:30.900Z,26.1
2023-03-28T19:48:11.993Z,26.1
2023-03-28T19:54:04.687Z,26.1
2023-03-28T19:59:57.777Z,26.1
2023-03-28T20:05:35.119Z,26
2023-03-28T20:10:58.672Z,26
2023-03-28T20:16:37.024Z,26
2023-03-28T20:22:28.569Z,26
2023-03-28T20:28:05.029Z,25.9
2023-03-28T20:33:56.963Z,25.9
2023-03-28T20:39:48.828Z,25.9
2023-03-28T20:45:26.628Z,25.9
2023-03-28T20:51:19.379Z,25.9
2023-03-28T20:57:14.455Z,25.8
2023-03-28T21:03:06.654Z,25.8
2023-03-28T21:08:58.155Z,25.8
2023-03-28T21:14:49.468Z,25.8
2023-03-28T21:20:25.435Z,25.7
2023-03-28T21:26:17.127Z,25.7
2023-03-28T21:31:37.750Z,25.7
2023-03-28T21:36:59.957Z,25.7
2023-03-28T21:42:36.420Z,25.6
2023-03-28T21:53:17.354Z,25.6
2023-03-28T21:59:09.233Z,25.6
2023-03-28T22:04:48.150Z,25.6
2023-03-28T22:09:46.955Z,25.6
2023-03-28T22:15:23.956Z,25.5
2023-03-28T22:20:44.274Z,25.5
2023-03-28T22:26:04.253Z,25.4
2023-03-28T22:31:25.297Z,25.4
2023-03-28T22:37:00.809Z,25.4
2023-03-28T22:42:36.566Z,25.4
2023-03-28T22:47:58.015Z,25.4
2023-03-28T22:53:34.756Z,25.4
2023-03-28T22:59:11.483Z,25.3
2023-03-28T23:04:48.012Z,25.3
2023-03-28T23:16:15.872Z,25.3
2023-03-28T23:27:44.381Z,25.3
2023-03-28T23:33:38.230Z,25.2
2023-03-28T23:39:30.272Z,25.2
2023-03-28T23:45:06.064Z,25.2
2023-03-28T23:50:26.899Z,25.1
2023-03-28T23:56:03.377Z,25.1
